Time;durP1;ratioP1;P1;durP2;ratioP2;P2;SDS_P1;SDS_P2;PMS_P1;PMS_P2;Temp;Humidity;BMP_temperature;BMP_pressure;BME280_temperature;BME280_humidity;BME280_pressure;Samples;Min_cycle;Max_cycle;Signal;HPM_P1;HPM_P2
2021/10/20 00:01:48;;;;;;;10.18;2.90;;;;;;;14.27;74.92;100967.75;4954250;28;20399;-78
2021/10/20 00:04:15;;;;;;;3.78;2.67;;;;;;;14.33;73.95;100956.63;4971554;28;20494;-77
2021/10/20 00:06:41;;;;;;;6.72;2.97;;;;;;;14.40;73.02;100957.53;4969043;28;20037;-76
2021/10/20 00:09:06;;;;;;;4.68;2.40;;;;;;;14.33;73.47;100956.63;4968863;28;20034;-77
2021/10/20 00:11:32;;;;;;;4.75;2.20;;;;;;;14.30;73.49;100959.59;4969453;28;20049;-77
2021/10/20 00:13:57;;;;;;;4.55;2.53;;;;;;;14.19;73.79;100963.44;4968985;28;20398;-77
2021/10/20 00:16:24;;;;;;;4.53;2.60;;;;;;;14.10;74.23;100954.03;4954699;28;20030;-78
2021/10/20 00:18:49;;;;;;;10.45;3.28;;;;;;;14.13;73.85;100948.50;4986117;28;20121;-76
2021/10/20 00:21:20;;;;;;;4.68;2.60;;;;;;;14.05;74.29;100956.34;4967194;28;20173;-77
2021/10/20 00:23:46;;;;;;;5.60;2.60;;;;;;;14.01;74.57;100950.72;4986135;28;20044;-78
2021/10/20 00:26:11;;;;;;;7.40;2.80;;;;;;;14.05;74.67;100942.53;4973574;28;20491;-77
2021/10/20 00:28:37;;;;;;;3.75;2.40;;;;;;;14.05;74.38;100942.53;4986054;28;20431;-77
2021/10/20 00:31:02;;;;;;;4.57;2.30;;;;;;;13.97;74.80;100946.00;4987277;28;20030;-76
2021/10/20 00:33:28;;;;;;;6.18;3.10;;;;;;;13.88;75.86;100939.22;4986944;28;20397;-75
2021/10/20 00:35:54;;;;;;;6.55;3.55;;;;;;;13.89;75.06;100935.66;4984244;28;20304;-78
2021/10/20 00:38:19;;;;;;;7.47;3.22;;;;;;;13.93;74.91;100929.09;4969155;28;20049;-76
2021/10/20 00:40:44;;;;;;;4.45;3.13;;;;;;;13.96;74.37;100932.16;4982567;28;20038;-77
2021/10/20 00:43:10;;;;;;;6.82;3.35;;;;;;;13.91;75.30;100918.03;4957634;28;20052;-79
2021/10/20 00:45:35;;;;;;;5.93;2.60;;;;;;;13.82;75.49;100928.53;4983835;28;20027;-77
2021/10/20 00:48:02;;;;;;;5.45;3.03;;;;;;;13.83;75.56;100924.13;4940882;28;1378135;-76
2021/10/20 00:50:27;;;;;;;5.90;3.08;;;;;;;13.89;75.01;100923.41;4991465;28;20541;-77
2021/10/20 00:52:53;;;;;;;4.90;2.80;;;;;;;13.83;75.47;100930.13;4950859;28;20405;-76
2021/10/20 00:55:19;;;;;;;4.30;2.60;;;;;;;13.77;75.55;100925.63;4990802;28;20049;-77
2021/10/20 00:57:46;;;;;;;4.05;2.50;;;;;;;13.83;75.11;100909.28;4986420;28;20078;-76
2021/10/20 01:00:14;;;;;;;4.13;2.47;;;;;;;13.88;74.71;100906.16;4970851;28;20038;-77
2021/10/20 01:02:40;;;;;;;6.72;2.40;;;;;;;13.76;75.75;100913.56;4989109;28;20027;-77
2021/10/20 01:05:08;;;;;;;5.65;2.70;;;;;;;13.81;75.00;100900.84;4986534;28;20038;-77
2021/10/20 01:07:34;;;;;;;4.78;2.78;;;;;;;13.70;75.54;100896.03;4983668;28;20050;-77
2021/10/20 01:09:59;;;;;;;4.28;2.83;;;;;;;13.83;74.90;100891.03;4969014;28;20065;-76
2021/10/20 01:12:25;;;;;;;5.60;2.88;;;;;;;13.82;74.92;100888.59;4968938;28;20054;-76
2021/10/20 01:14:51;;;;;;;3.75;2.63;;;;;;;13.71;75.95;100887.25;4971988;28;20093;-77
2021/10/20 01:17:17;;;;;;;4.72;2.33;;;;;;;13.73;75.36;100882.66;4967562;28;20041;-76
2021/10/20 01:19:43;;;;;;;6.70;2.58;;;;;;;13.69;75.68;100880.56;4972619;28;20054;-76
2021/10/20 01:22:09;;;;;;;4.72;2.70;;;;;;;13.84;74.72;100873.59;4985673;28;20101;-77
2021/10/20 01:24:35;;;;;;;4.13;2.25;;;;;;;13.91;74.22;100871.91;4952546;28;20030;-77
2021/10/20 01:27:01;;;;;;;6.05;2.78;;;;;;;13.81;75.27;100866.16;4987097;28;20053;-77
2021/10/20 01:29:27;;;;;;;4.90;2.72;;;;;;;13.97;74.09;100867.78;4973717;28;20081;-75
2021/10/20 01:31:56;;;;;;;9.00;2.63;;;;;;;13.94;73.97;100858.53;4989798;28;20040;-77
2021/10/20 01:34:22;;;;;;;6.07;2.70;;;;;;;14.03;73.64;100856.66;4991655;28;20577;-76
2021/10/20 01:36:51;;;;;;;4.25;2.45;;;;;;;14.02;73.61;100842.00;4974239;28;20255;-76
2021/10/20 01:39:18;;;;;;;5.57;2.15;;;;;;;13.97;74.62;100845.13;4976287;28;20046;-76
2021/10/20 01:41:43;;;;;;;6.22;2.30;;;;;;;14.17;73.13;100836.81;4977819;28;20053;-78
2021/10/20 01:44:09;;;;;;;4.53;2.70;;;;;;;14.32;72.59;100840.25;4973992;28;20034;-77
2021/10/20 01:46:35;;;;;;;7.40;2.38;;;;;;;14.23;73.26;100837.91;5011591;28;20081;-76
2021/10/20 01:49:00;;;;;;;4.00;2.33;;;;;;;14.23;73.23;100843.13;4973202;28;20076;-78
2021/10/20 01:51:26;;;;;;;4.68;2.30;;;;;;;14.02;74.12;100842.00;4975886;28;20578;-76
2021/10/20 01:53:52;;;;;;;6.72;2.50;;;;;;;13.99;73.83;100843.19;4955113;28;20052;-76
2021/10/20 01:56:18;;;;;;;5.85;2.40;;;;;;;13.96;74.70;100834.91;4973949;28;20396;-77
2021/10/20 01:58:45;;;;;;;3.28;2.05;;;;;;;13.86;75.16;100834.34;4973515;28;20030;-77
2021/10/20 02:01:11;;;;;;;6.00;2.63;;;;;;;13.86;75.21;100831.72;4988580;28;20026;-77
2021/10/20 02:03:38;;;;;;;5.97;2.90;;;;;;;13.93;74.46;100843.06;4973188;28;20510;-76
2021/10/20 02:06:10;;;;;;;5.00;2.72;;;;;;;14.01;73.90;100828.19;4994955;28;20482;-77
2021/10/20 02:08:36;;;;;;;4.45;2.55;;;;;;;13.93;74.88;100830.03;4972589;28;20046;-77
2021/10/20 02:11:02;;;;;;;7.10;2.45;;;;;;;13.99;74.35;100824.94;4960925;28;20048;-76
2021/10/20 02:13:28;;;;;;;5.70;2.50;;;;;;;14.01;74.73;100824.75;5003598;28;20044;-76
2021/10/20 02:15:53;;;;;;;5.68;3.42;;;;;;;14.15;73.78;100816.13;5003910;28;20042;-76
2021/10/20 02:18:19;;;;;;;4.85;2.25;;;;;;;14.08;73.71;100807.41;4973288;28;20502;-77
2021/10/20 02:20:45;;;;;;;3.13;2.00;;;;;;;14.05;74.06;100807.75;5008030;28;20479;-76
2021/10/20 02:23:11;;;;;;;4.85;2.50;;;;;;;14.17;73.87;100797.72;4991447;28;20282;-77
2021/10/20 02:25:37;;;;;;;6.22;2.42;;;;;;;14.10;74.06;100805.44;4990903;28;20060;-77
2021/10/20 02:28:02;;;;;;;9.43;2.40;;;;;;;14.07;74.48;100803.19;4978948;28;20050;-77
2021/10/20 02:30:28;;;;;;;4.93;2.55;;;;;;;14.10;74.94;100783.75;4992264;28;20054;-76
2021/10/20 02:32:54;;;;;;;5.22;3.22;;;;;;;14.09;74.49;100790.78;4988288;28;20092;-77
2021/10/20 02:35:19;;;;;;;4.40;2.35;;;;;;;13.99;74.81;100792.84;5002761;28;20262;-76
2021/10/20 02:37:45;;;;;;;5.57;2.17;;;;;;;14.23;73.63;100785.75;5001235;28;20038;-76
2021/10/20 02:40:12;;;;;;;6.57;2.92;;;;;;;14.15;74.12;100784.03;4973924;28;20505;-77
2021/10/20 02:42:39;;;;;;;8.40;2.67;;;;;;;14.17;74.45;100782.88;4998752;28;20486;-77
2021/10/20 02:45:06;;;;;;;6.88;2.65;;;;;;;14.30;72.92;100786.66;4972600;28;20029;-77
2021/10/20 02:47:32;;;;;;;7.30;2.80;;;;;;;14.17;74.47;100784.69;4974927;28;20048;-75
2021/10/20 02:49:57;;;;;;;4.80;2.47;;;;;;;14.13;74.38;100779.00;4987281;28;20034;-76
2021/10/20 02:52:23;;;;;;;10.40;2.75;;;;;;;14.18;74.20;100768.84;4971489;28;20490;-77
2021/10/20 02:54:48;;;;;;;4.82;2.55;;;;;;;14.18;74.32;100770.63;4973767;28;20034;-77
2021/10/20 02:57:14;;;;;;;3.85;2.58;;;;;;;14.10;74.83;100766.31;4983040;28;20038;-76
2021/10/20 02:59:39;;;;;;;4.47;2.63;;;;;;;14.15;74.27;100756.16;4976856;28;20034;-77
2021/10/20 03:02:05;;;;;;;9.93;3.05;;;;;;;14.20;73.95;100759.06;4975619;28;20034;-77
2021/10/20 03:04:30;;;;;;;6.85;2.33;;;;;;;14.16;74.55;100760.38;4972150;28;20046;-77
2021/10/20 03:06:56;;;;;;;7.85;2.80;;;;;;;14.15;74.28;100748.34;4989487;28;20022;-77
2021/10/20 03:09:21;;;;;;;7.47;3.38;;;;;;;14.14;74.24;100749.31;4971520;28;20466;-75
2021/10/20 03:11:47;;;;;;;10.02;2.45;;;;;;;14.16;74.27;100747.34;4977586;28;20410;-76
2021/10/20 03:14:14;;;;;;;5.97;3.15;;;;;;;14.10;75.00;100755.88;4989882;28;20133;-77
2021/10/20 03:16:40;;;;;;;5.32;2.80;;;;;;;14.30;73.80;100755.34;4970634;28;20030;-77
2021/10/20 03:19:05;;;;;;;8.05;2.67;;;;;;;14.35;74.00;100747.78;4988990;28;20030;-76
2021/10/20 03:21:31;;;;;;;7.90;3.47;;;;;;;14.16;75.08;100742.13;4956268;28;20540;-77
2021/10/20 03:23:56;;;;;;;5.97;2.97;;;;;;;14.03;75.54;100754.97;4977962;28;20100;-77
2021/10/20 03:26:22;;;;;;;5.93;3.20;;;;;;;13.99;76.04;100745.91;4973055;28;20291;-76
2021/10/20 03:28:47;;;;;;;13.63;2.80;;;;;;;14.04;75.40;100735.75;4973207;28;20495;-77
2021/10/20 03:31:13;;;;;;;5.65;3.38;;;;;;;14.09;75.56;100749.06;4974754;28;20434;-77
2021/10/20 03:33:38;;;;;;;6.80;3.45;;;;;;;14.01;75.99;100741.31;4970808;28;20034;-77
2021/10/20 03:36:07;;;;;;;6.32;3.38;;;;;;;14.05;76.15;100741.78;4973122;28;20038;-75
2021/10/20 03:38:32;;;;;;;5.00;3.33;;;;;;;14.07;75.43;100743.22;4985655;28;20089;-76
2021/10/20 03:40:58;;;;;;;5.70;3.10;;;;;;;14.05;75.56;100736.56;4973655;28;20034;-76
2021/10/20 03:43:23;;;;;;;4.32;3.00;;;;;;;14.10;75.49;100734.22;4988727;28;20026;-76
2021/10/20 03:45:49;;;;;;;6.90;3.40;;;;;;;13.91;76.08;100736.38;5005129;28;20034;-75
2021/10/20 03:48:14;;;;;;;9.68;4.25;;;;;;;13.93;76.48;100725.78;4968942;28;20046;-76
2021/10/20 03:50:41;;;;;;;6.28;3.72;;;;;;;14.01;76.20;100729.13;5003913;28;20034;-76
2021/10/20 03:53:07;;;;;;;5.20;3.97;;;;;;;13.89;76.80;100727.13;4985297;28;20046;-77
2021/10/20 03:55:32;;;;;;;6.70;4.07;;;;;;;13.88;76.96;100726.34;4982423;28;20096;-79
2021/10/20 03:57:59;;;;;;;6.18;4.30;;;;;;;13.97;76.35;100714.81;4971722;28;20117;-76
2021/10/20 04:00:24;;;;;;;6.88;4.10;;;;;;;14.01;76.03;100710.03;4983738;28;20509;-76
2021/10/20 04:02:50;;;;;;;5.75;4.22;;;;;;;14.04;76.31;100707.06;4997617;28;20038;-76
2021/10/20 04:05:17;;;;;;;7.07;3.70;;;;;;;13.97;76.83;100714.00;4974490;28;20061;-76
2021/10/20 04:07:44;;;;;;;6.25;3.83;;;;;;;13.83;77.58;100715.63;5001372;28;20038;-76
2021/10/20 04:10:17;;;;;;;11.65;3.60;;;;;;;13.77;78.35;100717.16;4983886;28;20049;-77
2021/10/20 04:13:01;;;;;;;6.65;3.78;;;;;;;13.71;78.12;100711.81;4986114;28;20510;-76
2021/10/20 04:15:27;;;;;;;6.05;3.22;;;;;;;13.79;77.54;100709.97;4971377;28;20034;-77
2021/10/20 04:17:53;;;;;;;5.07;3.42;;;;;;;13.71;78.28;100704.84;4986712;28;20147;-77
2021/10/20 04:20:21;;;;;;;8.82;3.65;;;;;;;13.60;78.96;100707.88;4970414;28;20034;-77
2021/10/20 04:22:48;;;;;;;9.60;4.90;;;;;;;13.52;79.10;100708.75;4968708;28;20038;-76
2021/10/20 04:25:15;;;;;;;7.82;3.47;;;;;;;13.72;78.46;100703.84;4973928;28;20037;-76
2021/10/20 04:27:42;;;;;;;5.60;3.90;;;;;;;13.57;79.01;100701.22;4969082;28;20138;-76
2021/10/20 04:30:09;;;;;;;11.18;4.03;;;;;;;13.52;79.46;100697.53;4985379;28;20034;-76
2021/10/20 04:32:35;;;;;;;6.15;3.33;;;;;;;13.55;79.31;100691.97;4972460;28;20054;-76
2021/10/20 04:35:01;;;;;;;7.35;4.32;;;;;;;13.53;79.53;100699.97;4986852;28;20026;-76
2021/10/20 04:37:30;;;;;;;6.00;3.53;;;;;;;13.56;79.46;100690.97;4970256;28;20034;-77
2021/10/20 04:39:57;;;;;;;9.90;3.67;;;;;;;13.57;79.61;100692.59;4969683;28;20030;-77
2021/10/20 04:42:28;;;;;;;6.93;4.53;;;;;;;13.49;79.86;100693.50;4984861;28;20042;-77
2021/10/20 04:44:55;;;;;;;7.40;3.97;;;;;;;13.44;79.92;100680.19;4974756;28;20074;-76
2021/10/20 04:47:20;;;;;;;4.90;3.33;;;;;;;13.55;79.59;100678.94;4986854;28;20033;-77
2021/10/20 04:49:47;;;;;;;5.30;3.72;;;;;;;13.57;80.03;100674.38;4986592;28;20038;-78
2021/10/20 04:52:12;;;;;;;5.50;3.58;;;;;;;13.53;80.09;100678.31;4984780;28;20065;-76
2021/10/20 04:54:38;;;;;;;8.38;4.15;;;;;;;13.57;79.83;100675.16;4987528;28;20394;-76
2021/10/20 04:57:04;;;;;;;10.38;3.80;;;;;;;13.73;78.73;100669.00;4964672;28;20038;-77
2021/10/20 04:59:31;;;;;;;12.48;4.13;;;;;;;13.73;78.78;100662.94;4967592;28;20045;-76
2021/10/20 05:01:58;;;;;;;8.65;4.28;;;;;;;13.77;78.87;100654.59;4986679;28;20029;-76
2021/10/20 05:04:24;;;;;;;5.80;4.10;;;;;;;13.72;78.94;100649.13;4985626;28;20205;-77
2021/10/20 05:06:49;;;;;;;8.35;3.95;;;;;;;13.62;79.64;100654.59;4971543;28;20120;-77
2021/10/20 05:09:14;;;;;;;18.25;4.43;;;;;;;13.67;79.48;100646.25;4969367;28;20034;-79
2021/10/20 05:11:40;;;;;;;8.23;3.72;;;;;;;13.67;79.17;100643.63;4982999;28;20467;-76
2021/10/20 05:14:05;;;;;;;7.68;4.03;;;;;;;13.62;79.83;100643.38;4965210;28;20042;-77
2021/10/20 05:16:31;;;;;;;5.68;3.38;;;;;;;13.68;79.43;100629.63;4986600;28;20296;-77
2021/10/20 05:18:56;;;;;;;9.77;4.00;;;;;;;13.65;79.69;100627.38;4974163;28;20042;-76
2021/10/20 05:21:22;;;;;;;7.15;4.10;;;;;;;13.64;79.92;100620.56;4981627;28;20057;-76
2021/10/20 05:23:50;;;;;;;6.85;3.60;;;;;;;13.50;80.20;100616.16;4986989;28;20452;-75
2021/10/20 05:26:16;;;;;;;8.40;4.70;;;;;;;13.50;80.30;100613.53;4987736;28;20030;-77
2021/10/20 05:28:41;;;;;;;8.65;3.78;;;;;;;13.53;80.20;100595.75;4983423;28;20066;-76
2021/10/20 05:31:06;;;;;;;8.25;3.88;;;;;;;13.65;79.06;100593.50;4967726;28;20376;-76
2021/10/20 05:33:32;;;;;;;7.82;3.95;;;;;;;13.61;79.29;100589.66;4970122;28;20287;-77
2021/10/20 05:35:57;;;;;;;6.18;3.97;;;;;;;13.60;79.85;100580.22;4985741;28;20464;-76
2021/10/20 05:38:23;;;;;;;10.82;4.00;;;;;;;13.57;79.75;100570.16;4951865;28;20030;-77
2021/10/20 05:40:48;;;;;;;9.70;3.50;;;;;;;13.53;80.26;100561.91;4975190;28;20769;-76
2021/10/20 05:43:14;;;;;;;10.50;4.40;;;;;;;13.58;79.67;100569.16;4983594;28;20038;-77
2021/10/20 05:45:39;;;;;;;10.00;5.18;;;;;;;13.54;80.36;100557.50;4972512;28;20019;-76
2021/10/20 05:48:23;;;;;;;10.00;4.22;;;;;;;13.56;80.41;100556.34;4963215;28;20283;-77
2021/10/20 05:50:50;;;;;;;8.32;4.25;;;;;;;13.67;79.84;100547.22;4973711;28;20046;-78
2021/10/20 05:53:16;;;;;;;7.22;3.30;;;;;;;13.85;78.79;100527.81;4984416;28;20068;-77
2021/10/20 05:55:41;;;;;;;9.40;6.32;;;;;;;13.76;79.30;100546.13;4969049;28;20050;-77
2021/10/20 05:58:07;;;;;;;5.82;3.83;;;;;;;13.66;79.78;100545.63;4974492;28;20038;-76
2021/10/20 06:00:33;;;;;;;9.55;4.30;;;;;;;13.73;79.73;100532.66;4986569;28;20458;-75
2021/10/20 06:02:58;;;;;;;6.13;3.83;;;;;;;13.76;79.49;100519.28;4982999;28;20108;-78
2021/10/20 06:05:24;;;;;;;6.68;3.92;;;;;;;13.78;79.07;100515.50;4983768;28;20035;-76
2021/10/20 06:07:50;;;;;;;8.95;5.45;;;;;;;13.64;80.05;100526.78;4983496;28;20041;-76
2021/10/20 06:10:16;;;;;;;9.48;4.43;;;;;;;13.58;80.59;100550.94;4981982;28;20022;-76
2021/10/20 06:12:42;;;;;;;10.80;5.45;;;;;;;13.56;80.97;100565.94;4974173;28;20077;-77
2021/10/20 06:15:08;;;;;;;11.18;7.70;;;;;;;13.52;81.69;100573.28;4973803;28;20038;-76
2021/10/20 06:17:35;;;;;;;13.80;8.30;;;;;;;13.49;81.21;100558.06;4995093;28;20088;-76
2021/10/20 06:20:01;;;;;;;9.80;4.25;;;;;;;13.57;81.35;100544.91;4973839;28;21014;-77
2021/10/20 06:22:26;;;;;;;8.27;4.57;;;;;;;13.46;81.58;100547.97;4974438;28;20049;-77
2021/10/20 06:24:52;;;;;;;7.28;4.10;;;;;;;13.36;82.46;100545.66;4987524;28;20546;-77
2021/10/20 06:27:18;;;;;;;6.85;4.45;;;;;;;13.31;82.92;100542.78;4977840;28;20431;-77
2021/10/20 06:29:43;;;;;;;11.55;4.85;;;;;;;13.29;83.24;100539.50;4973772;28;20034;-76
2021/10/20 06:32:09;;;;;;;8.75;4.57;;;;;;;13.25;82.97;100552.09;4971176;28;20034;-76
2021/10/20 06:34:34;;;;;;;8.88;4.15;;;;;;;13.18;83.45;100548.56;4977074;28;20394;-76
2021/10/20 06:37:01;;;;;;;11.02;4.93;;;;;;;13.14;83.56;100531.69;4974389;28;20387;-76
2021/10/20 06:39:27;;;;;;;7.82;4.60;;;;;;;13.11;83.93;100532.06;4973576;28;20387;-77
2021/10/20 06:41:53;;;;;;;10.75;4.43;;;;;;;13.09;84.29;100518.44;4964913;28;20503;-76
2021/10/20 06:44:18;;;;;;;8.55;4.95;;;;;;;13.07;84.50;100533.41;5002100;28;20040;-77
2021/10/20 06:46:44;;;;;;;6.38;4.15;;;;;;;13.06;84.73;100537.00;4993585;28;20033;-76
2021/10/20 06:49:10;;;;;;;10.10;5.32;;;;;;;13.08;84.94;100514.19;4992753;28;20034;-76
2021/10/20 06:51:35;;;;;;;9.02;4.80;;;;;;;13.12;84.79;100517.25;5004271;28;20065;-76
2021/10/20 06:54:01;;;;;;;14.32;5.32;;;;;;;13.15;84.94;100529.94;4984659;28;20038;-76
2021/10/20 06:56:26;;;;;;;12.35;5.88;;;;;;;13.30;84.38;100503.88;4987987;28;20171;-76
2021/10/20 06:58:52;;;;;;;15.15;5.18;;;;;;;13.35;84.19;100502.38;4987943;28;20550;-76
2021/10/20 07:01:18;;;;;;;13.18;6.50;;;;;;;13.47;84.46;100514.91;4987319;28;20376;-77
2021/10/20 07:03:44;;;;;;;8.82;4.97;;;;;;;13.51;83.64;100509.19;4998497;28;20066;-76
2021/10/20 07:06:10;;;;;;;17.88;4.95;;;;;;;13.83;82.39;100494.91;4988891;28;20047;-77
2021/10/20 07:08:36;;;;;;;14.73;5.40;;;;;;;13.75;82.95;100499.41;4987124;28;20124;-75
2021/10/20 07:11:02;;;;;;;10.15;5.13;;;;;;;13.85;82.45;100493.94;4972552;28;20050;-76
2021/10/20 07:13:27;;;;;;;10.05;5.10;;;;;;;13.86;82.75;100491.13;4988637;28;20030;-76
2021/10/20 07:15:53;;;;;;;9.30;4.90;;;;;;;13.83;83.28;100520.16;4974998;28;20668;-76
2021/10/20 07:18:19;;;;;;;7.13;4.13;;;;;;;13.96;82.40;100520.31;4969709;28;20050;-77
2021/10/20 07:20:45;;;;;;;11.32;5.22;;;;;;;14.05;82.67;100512.34;4980686;28;20088;-77
2021/10/20 07:23:11;;;;;;;9.43;4.78;;;;;;;14.12;82.09;100506.22;4982576;28;20483;-76
2021/10/20 07:25:36;;;;;;;12.73;4.97;;;;;;;14.14;81.77;100503.44;4972902;28;20041;-76
2021/10/20 07:28:02;;;;;;;7.80;4.70;;;;;;;14.18;81.81;100513.31;4965910;28;20039;-77
2021/10/20 07:30:27;;;;;;;6.70;4.75;;;;;;;14.26;81.49;100516.75;4977105;28;20034;-77
2021/10/20 07:32:53;;;;;;;11.27;4.88;;;;;;;14.30;81.65;100525.84;4991201;28;20458;-77
2021/10/20 07:35:19;;;;;;;11.80;5.22;;;;;;;14.39;81.21;100519.50;4973603;28;20038;-76
2021/10/20 07:37:44;;;;;;;17.38;5.18;;;;;;;14.48;80.97;100526.19;4983249;28;20042;-76
2021/10/20 07:40:12;;;;;;;9.35;6.95;;;;;;;14.50;81.16;100518.97;4976656;28;20041;-77
2021/10/20 07:42:39;;;;;;;11.05;6.70;;;;;;;14.67;80.70;100518.75;4987568;28;20049;-77
2021/10/20 07:45:07;;;;;;;8.63;4.70;;;;;;;14.79;79.47;100505.00;4977627;28;20259;-77
2021/10/20 07:47:33;;;;;;;8.80;4.70;;;;;;;14.95;78.99;100501.25;4970542;28;20037;-76
2021/10/20 07:49:59;;;;;;;9.75;5.05;;;;;;;14.99;79.40;100493.84;4988505;28;20522;-76
2021/10/20 07:52:28;;;;;;;13.70;5.22;;;;;;;15.08;78.55;100471.00;4984653;28;20133;-76
2021/10/20 07:54:54;;;;;;;9.60;4.95;;;;;;;14.99;79.04;100463.34;4972964;28;20049;-77
2021/10/20 07:57:19;;;;;;;8.60;5.00;;;;;;;14.92;79.54;100446.84;4988332;28;20034;-76
2021/10/20 07:59:45;;;;;;;7.90;4.50;;;;;;;14.85;79.56;100461.66;4967761;28;20092;-76
2021/10/20 08:02:10;;;;;;;8.07;4.88;;;;;;;14.95;79.84;100458.69;4971662;28;20045;-77
2021/10/20 08:04:36;;;;;;;10.48;4.95;;;;;;;14.88;80.20;100447.41;5001869;28;20109;-76
2021/10/20 08:07:01;;;;;;;11.95;6.05;;;;;;;14.98;80.10;100430.41;4969599;28;20038;-76
2021/10/20 08:09:27;;;;;;;8.00;4.53;;;;;;;15.12;79.12;100402.53;4973152;28;20057;-77
2021/10/20 08:11:52;;;;;;;7.80;4.72;;;;;;;15.32;77.90;100378.31;4987761;28;20041;-77
2021/10/20 08:14:18;;;;;;;12.95;4.97;;;;;;;15.19;78.48;100369.41;4972621;28;20030;-77
2021/10/20 08:16:44;;;;;;;8.52;4.68;;;;;;;15.37;77.73;100361.03;4977673;28;20133;-76
2021/10/20 08:19:09;;;;;;;13.93;5.78;;;;;;;15.28;78.32;100375.28;4956035;28;20072;-76
2021/10/20 08:21:34;;;;;;;9.90;4.30;;;;;;;15.26;79.12;100379.88;4969564;28;20034;-76
2021/10/20 08:24:00;;;;;;;9.80;4.43;;;;;;;15.39;78.36;100389.56;4969726;28;20026;-78
2021/10/20 08:26:25;;;;;;;9.27;4.30;;;;;;;15.68;77.51;100405.91;4961385;28;20038;-77
2021/10/20 08:28:51;;;;;;;6.75;4.80;;;;;;;15.90;77.14;100389.06;4975227;28;20038;-77
2021/10/20 08:31:16;;;;;;;9.30;4.82;;;;;;;16.32;74.75;100357.44;4968172;28;20061;-75
2021/10/20 08:33:42;;;;;;;12.57;5.10;;;;;;;16.27;74.44;100370.31;4952506;28;20495;-76
2021/10/20 08:36:08;;;;;;;8.90;4.50;;;;;;;16.28;74.90;100382.41;4988497;28;20045;-77
2021/10/20 08:38:34;;;;;;;7.90;4.38;;;;;;;16.74;73.53;100379.69;4976109;28;20037;-76
2021/10/20 08:41:00;;;;;;;8.45;4.28;;;;;;;16.96;73.07;100365.53;4974839;28;20038;-77
2021/10/20 08:43:26;;;;;;;6.75;4.45;;;;;;;16.92;72.46;100360.69;4966383;28;20031;-77
2021/10/20 08:45:52;;;;;;;9.18;5.13;;;;;;;16.86;73.41;100369.41;4972914;28;20046;-76
2021/10/20 08:48:19;;;;;;;6.05;4.40;;;;;;;17.24;71.57;100352.09;4964444;28;20034;-77
2021/10/20 08:50:50;;;;;;;6.50;4.32;;;;;;;17.27;70.47;100344.63;4972196;28;20065;-76
2021/10/20 08:53:18;;;;;;;21.65;5.32;;;;;;;17.26;71.33;100369.19;4983368;28;20037;-77
2021/10/20 08:55:46;;;;;;;7.57;4.35;;;;;;;17.21;71.12;100376.88;4974746;28;20049;-77
2021/10/20 08:58:11;;;;;;;9.75;4.25;;;;;;;17.12;71.03;100371.09;4967669;28;20037;-76
2021/10/20 09:00:36;;;;;;;8.23;4.38;;;;;;;16.93;71.49;100382.44;4969916;28;20030;-78
2021/10/20 09:03:02;;;;;;;6.47;4.20;;;;;;;16.82;72.63;100378.69;4982947;28;20046;-76
2021/10/20 09:05:29;;;;;;;9.10;4.53;;;;;;;16.52;74.02;100352.97;5000408;28;20142;-78
2021/10/20 09:07:55;;;;;;;8.05;4.60;;;;;;;16.24;76.59;100332.31;4967016;28;20084;-76
2021/10/20 09:10:23;;;;;;;9.07;5.13;;;;;;;16.14;77.73;100327.50;4972657;28;20557;-76
2021/10/20 09:12:50;;;;;;;8.43;4.82;;;;;;;16.10;77.44;100325.47;4980671;28;20042;-77
2021/10/20 09:15:19;;;;;;;7.88;4.57;;;;;;;16.01;78.85;100319.69;4970674;28;20030;-77
2021/10/20 09:17:55;;;;;;;8.15;4.78;;;;;;;16.02;78.03;100326.50;4977884;28;20046;-75
2021/10/20 09:20:24;;;;;;;6.75;4.75;;;;;;;15.90;78.20;100323.69;4970784;28;20085;-79
2021/10/20 09:23:09;;;;;;;8.98;4.80;;;;;;;16.02;77.55;100312.63;4970607;28;20037;-77
2021/10/20 09:25:55;;;;;;;6.90;4.55;;;;;;;16.02;77.73;100321.28;4973148;28;20057;-77
2021/10/20 09:28:27;;;;;;;7.28;4.85;;;;;;;16.05;77.44;100313.03;4971008;28;20499;-78
2021/10/20 09:30:57;;;;;;;7.30;4.32;;;;;;;16.15;76.71;100318.63;4990533;28;20188;-77
2021/10/20 09:33:24;;;;;;;11.13;4.80;;;;;;;16.29;76.31;100313.38;4971780;28;20048;-77
2021/10/20 09:35:49;;;;;;;9.13;4.90;;;;;;;16.24;77.27;100316.63;4973567;28;20056;-77
2021/10/20 09:38:15;;;;;;;9.30;4.82;;;;;;;16.10;77.14;100346.41;4975930;28;20497;-77
2021/10/20 09:40:43;;;;;;;8.90;5.05;;;;;;;16.26;75.39;100298.91;5001332;28;20093;-77
2021/10/20 09:43:11;;;;;;;10.70;5.00;;;;;;;16.25;76.06;100317.41;4982335;28;20042;-77
2021/10/20 09:45:39;;;;;;;12.20;5.75;;;;;;;16.18;75.81;100314.00;4999367;28;20057;-78
2021/10/20 09:48:22;;;;;;;5.93;4.60;;;;;;;16.21;75.68;100322.25;4995544;28;20478;-78
2021/10/20 09:50:57;;;;;;;9.73;5.10;;;;;;;16.11;76.58;100327.91;5005749;28;20037;-78
2021/10/20 09:53:26;;;;;;;8.65;4.85;;;;;;;16.10;76.54;100315.81;4992535;28;20030;-77
2021/10/20 09:55:52;;;;;;;7.88;5.03;;;;;;;16.10;76.01;100325.47;4987045;28;20129;-77
2021/10/20 09:58:17;;;;;;;8.95;4.88;;;;;;;16.11;76.45;100329.72;4957135;28;20034;-77
2021/10/20 10:00:43;;;;;;;10.13;4.75;;;;;;;16.20;75.60;100312.81;4974016;28;20655;-76
2021/10/20 10:03:10;;;;;;;10.57;5.18;;;;;;;16.30;75.15;100322.84;4971809;28;20034;-77
2021/10/20 10:05:37;;;;;;;7.60;5.15;;;;;;;16.30;74.73;100309.75;4988688;28;20034;-76
2021/10/20 10:08:03;;;;;;;8.68;4.63;;;;;;;16.45;73.59;100315.53;4976779;28;20045;-77
2021/10/20 10:10:29;;;;;;;10.38;5.18;;;;;;;16.40;74.13;100317.16;4973508;28;20034;-77
2021/10/20 10:13:01;;;;;;;10.45;4.65;;;;;;;16.43;74.30;100319.38;4973371;28;20418;-78
2021/10/20 10:15:28;;;;;;;11.65;4.38;;;;;;;16.39;74.28;100328.63;4990627;28;20034;-76
2021/10/20 10:17:56;;;;;;;12.23;5.70;;;;;;;16.43;75.13;100327.25;5005156;28;20100;-77
2021/10/20 10:20:28;;;;;;;9.05;4.13;;;;;;;16.34;74.49;100324.81;4992899;28;20026;-77
2021/10/20 10:22:59;;;;;;;6.80;4.75;;;;;;;16.30;75.20;100313.16;4977649;28;20074;-77
2021/10/20 10:25:38;;;;;;;13.48;4.50;;;;;;;16.48;74.18;100330.84;4988243;28;20042;-77
2021/10/20 10:28:27;;;;;;;8.38;4.35;;;;;;;16.41;74.01;100331.88;4978171;28;20402;-76
2021/10/20 10:31:06;;;;;;;10.90;4.40;;;;;;;16.36;75.49;100322.00;4948218;28;20506;-77
2021/10/20 10:33:37;;;;;;;7.28;4.22;;;;;;;16.44;75.29;100313.94;4989936;28;20483;-77
2021/10/20 10:36:04;;;;;;;8.90;4.65;;;;;;;16.55;73.94;100328.19;4997019;28;20481;-76
2021/10/20 10:38:41;;;;;;;7.05;4.72;;;;;;;16.44;75.62;100321.78;4974364;28;20291;-77
2021/10/20 10:41:21;;;;;;;6.25;4.18;;;;;;;16.53;74.65;100317.91;4979307;28;20406;-76
2021/10/20 10:44:21;;;;;;;8.38;4.63;;;;;;;16.42;75.91;100329.03;4967168;28;20855;-77
2021/10/20 10:47:05;;;;;;;14.45;4.55;;;;;;;16.51;75.27;100327.78;4934475;28;20053;-75
2021/10/20 10:49:52;;;;;;;5.85;4.05;;;;;;;16.59;74.32;100333.81;4974448;28;20105;-76
2021/10/20 10:52:33;;;;;;;8.10;4.40;;;;;;;16.62;74.68;100325.56;4978030;28;20045;-77
2021/10/20 10:55:20;;;;;;;6.68;4.55;;;;;;;16.54;74.34;100330.00;4971872;28;20058;-76
2021/10/20 10:57:51;;;;;;;9.90;5.03;;;;;;;16.64;74.31;100345.28;4975251;28;20042;-76
2021/10/20 11:00:17;;;;;;;11.00;5.22;;;;;;;16.62;74.38;100343.88;4973333;28;20120;-77
2021/10/20 11:02:46;;;;;;;10.52;4.32;;;;;;;16.51;74.41;100325.19;4995678;28;20104;-76
2021/10/20 11:05:13;;;;;;;8.07;4.40;;;;;;;16.57;74.29;100331.41;4989568;28;20034;-77
2021/10/20 11:07:42;;;;;;;9.48;5.00;;;;;;;16.57;74.47;100325.38;4994109;28;20042;-77
2021/10/20 11:10:07;;;;;;;7.22;4.60;;;;;;;16.66;74.05;100331.97;4993788;28;20029;-78
2021/10/20 11:12:34;;;;;;;7.13;4.43;;;;;;;16.73;73.66;100324.91;4983693;28;20494;-77
2021/10/20 11:14:59;;;;;;;10.38;4.85;;;;;;;16.67;74.14;100320.50;5001260;28;20033;-76
2021/10/20 11:17:25;;;;;;;9.20;4.70;;;;;;;16.61;75.09;100324.75;4992043;28;20030;-76
2021/10/20 11:19:50;;;;;;;10.48;5.30;;;;;;;16.70;74.28;100315.66;4972583;28;20613;-77
2021/10/20 11:22:20;;;;;;;7.75;4.20;;;;;;;16.64;73.99;100316.47;4970923;28;20065;-76
2021/10/20 11:24:47;;;;;;;9.20;4.20;;;;;;;16.81;73.94;100324.66;4984499;28;20072;-79